createdAt,value
2023-05-08T00:01:19.013Z,6.55
2023-05-08T00:06:20.762Z,6.60
2023-05-08T00:11:22.723Z,7.75
2023-05-08T00:16:24.481Z,7.05
2023-05-08T00:21:26.964Z,6.88
2023-05-08T00:26:28.659Z,7.15
2023-05-08T00:31:30.476Z,7.00
2023-05-08T00:36:32.381Z,7.07
2023-05-08T00:41:34.106Z,7.07
2023-05-08T00:46:36.890Z,7.30
2023-05-08T00:51:39.523Z,7.43
2023-05-08T00:56:41.356Z,8.32
2023-05-08T01:01:44.133Z,6.97
2023-05-08T01:06:45.946Z,6.47
2023-05-08T01:12:24.122Z,7.97
2023-05-08T01:17:39.061Z,6.18
2023-05-08T01:22:49.966Z,6.15
2023-05-08T01:28:21.829Z,7.20
2023-05-08T01:33:51.437Z,7.25
2023-05-08T01:39:16.677Z,6.82
2023-05-08T01:44:24.234Z,5.97
2023-05-08T01:49:37.753Z,6.25
2023-05-08T01:54:53.291Z,5.80
2023-05-08T01:59:57.808Z,6.60
2023-05-08T02:05:05.922Z,6.90
2023-05-08T02:10:08.940Z,6.13
2023-05-08T02:15:14.567Z,5.18
2023-05-08T02:20:16.910Z,5.78
2023-05-08T02:25:19.649Z,5.53
2023-05-08T02:30:24.416Z,5.65
2023-05-08T02:35:28.023Z,6.28
2023-05-08T02:40:32.074Z,5.85
2023-05-08T02:45:49.567Z,6.93
2023-05-08T02:51:00.120Z,4.50
2023-05-08T02:56:33.112Z,6.75
2023-05-08T03:01:43.971Z,4.82
2023-05-08T03:06:47.702Z,6.72
2023-05-08T03:11:53.668Z,5.25
2023-05-08T03:16:57.195Z,5.07
2023-05-08T03:22:00.641Z,4.93
2023-05-08T03:27:03.668Z,6.43
2023-05-08T03:32:06.912Z,4.82
2023-05-08T03:37:08.967Z,5.45
2023-05-08T03:42:16.818Z,6.20
2023-05-08T03:47:21.872Z,4.60
2023-05-08T03:57:49.015Z,4.75
2023-05-08T04:03:01.506Z,5.22
2023-05-08T04:08:06.788Z,5.65
2023-05-08T04:13:13.418Z,4.85
2023-05-08T04:18:25.298Z,5.05
2023-05-08T04:23:29.788Z,5.10
2023-05-08T04:28:32.132Z,4.20
2023-05-08T04:33:35.835Z,4.60
2023-05-08T04:43:41.737Z,6.13
2023-05-08T04:48:43.803Z,5.03
2023-05-08T04:53:46.029Z,4.78
2023-05-08T04:58:48.139Z,5.18
2023-05-08T05:03:50.582Z,6.07
2023-05-08T05:08:53.467Z,5.13
2023-05-08T05:13:56.092Z,5.93
2023-05-08T05:18:58.159Z,5.55
2023-05-08T05:24:00.038Z,5.43
2023-05-08T05:29:01.890Z,7.05
2023-05-08T05:34:04.736Z,6.63
2023-05-08T05:39:06.974Z,4.55
2023-05-08T05:44:09.393Z,6.40
2023-05-08T05:49:12.304Z,5.15
2023-05-08T05:54:14.656Z,5.75
2023-05-08T05:59:16.587Z,5.35
2023-05-08T06:04:18.790Z,4.88
2023-05-08T06:09:20.632Z,5.60
2023-05-08T06:14:22.385Z,5.13
2023-05-08T06:19:24.494Z,7.10
2023-05-08T06:24:26.464Z,5.45
2023-05-08T06:29:28.167Z,5.72
2023-05-08T06:34:29.880Z,5.60
2023-05-08T06:39:31.678Z,5.55
2023-05-08T06:44:33.912Z,5.88
2023-05-08T06:49:36.446Z,6.18
2023-05-08T06:54:38.260Z,7.38
2023-05-08T06:59:40.508Z,6.63
2023-05-08T07:04:43.680Z,5.15
2023-05-08T07:09:45.542Z,6.63
2023-05-08T07:14:47.251Z,5.80
2023-05-08T07:19:52.117Z,5.95
2023-05-08T07:24:53.830Z,5.95
2023-05-08T07:29:57.394Z,6.47
2023-05-08T07:34:59.160Z,7.47
2023-05-08T07:40:00.902Z,6.80
2023-05-08T07:45:02.623Z,7.32
2023-05-08T07:50:05.059Z,8.00
2023-05-08T07:55:07.416Z,8.10
2023-05-08T08:00:13.901Z,6.88
2023-05-08T08:05:16.057Z,6.60
2023-05-08T08:10:18.373Z,5.72
2023-05-08T08:15:20.335Z,5.05
2023-05-08T08:20:22.307Z,6.97
2023-05-08T08:25:24.541Z,6.50
2023-05-08T08:30:26.387Z,5.45
2023-05-08T08:35:30.116Z,5.38
2023-05-08T08:40:31.899Z,6.45
2023-05-08T08:45:33.806Z,5.22
2023-05-08T08:50:36.293Z,5.68
2023-05-08T08:55:40.725Z,6.68
2023-05-08T09:00:43.309Z,6.55
2023-05-08T09:05:45.817Z,5.97
2023-05-08T09:10:47.864Z,5.07
2023-05-08T09:15:52.886Z,4.93
2023-05-08T09:20:54.717Z,6.38
2023-05-08T09:25:56.971Z,5.32
2023-05-08T09:30:59.783Z,9.20
2023-05-08T09:36:01.527Z,5.68
2023-05-08T09:41:16.102Z,6.82
2023-05-08T09:46:26.826Z,6.85
2023-05-08T09:51:31.124Z,6.30
2023-05-08T09:56:37.931Z,9.45
2023-05-08T10:01:39.754Z,6.53
2023-05-08T10:06:41.861Z,7.28
2023-05-08T10:11:53.849Z,6.47
2023-05-08T10:16:56.020Z,6.78
2023-05-08T10:22:00.812Z,6.00
2023-05-08T10:27:14.138Z,5.72
2023-05-08T10:32:19.153Z,6.07
2023-05-08T10:37:21.284Z,7.80
2023-05-08T10:42:23.408Z,9.98
2023-05-08T10:47:55.681Z,7.63
2023-05-08T10:53:06.317Z,8.13
2023-05-08T10:58:28.352Z,6.45
2023-05-08T11:03:33.119Z,7.88
2023-05-08T11:08:47.863Z,6.70
2023-05-08T11:14:16.388Z,7.03
2023-05-08T11:19:20.470Z,9.30
2023-05-08T11:24:35.960Z,10.23
2023-05-08T11:29:38.840Z,6.85
2023-05-08T11:34:43.946Z,7.07
2023-05-08T11:39:46.673Z,6.28
2023-05-08T11:44:48.519Z,9.10
2023-05-08T11:49:50.381Z,6.15
2023-05-08T11:54:52.112Z,8.85
2023-05-08T11:59:53.900Z,9.85
2023-05-08T12:04:55.790Z,6.57
2023-05-08T12:09:57.703Z,7.07
2023-05-08T12:14:59.435Z,6.78
2023-05-08T12:20:15.215Z,7.95
2023-05-08T12:25:18.265Z,6.70
2023-05-08T12:30:20.372Z,5.20
2023-05-08T12:35:22.571Z,7.50
2023-05-08T12:40:29.152Z,7.53
2023-05-08T12:45:34.220Z,9.65
2023-05-08T12:50:41.324Z,8.00
2023-05-08T12:55:57.536Z,8.90
2023-05-08T13:01:12.991Z,8.05
2023-05-08T13:06:22.253Z,6.97
2023-05-08T13:11:32.920Z,8.32
2023-05-08T13:16:45.972Z,10.50
2023-05-08T13:21:48.143Z,9.33
2023-05-08T13:26:49.967Z,7.40
2023-05-08T13:31:52.105Z,9.43
2023-05-08T13:36:54.064Z,8.75
2023-05-08T13:41:55.760Z,8.35
2023-05-08T13:46:57.501Z,7.47
2023-05-08T13:51:59.311Z,9.77
2023-05-08T13:57:02.612Z,9.65
2023-05-08T14:02:04.694Z,7.55
2023-05-08T14:07:06.822Z,8.02
2023-05-08T14:12:08.656Z,10.15
2023-05-08T14:17:10.802Z,8.10
2023-05-08T14:22:12.767Z,8.57
2023-05-08T14:27:14.603Z,5.95
2023-05-08T14:32:16.398Z,9.30
2023-05-08T14:37:18.624Z,8.10
2023-05-08T14:42:22.824Z,6.72
2023-05-08T14:47:25.816Z,6.88
2023-05-08T14:52:27.570Z,6.68
2023-05-08T14:57:29.303Z,8.75
2023-05-08T15:02:31.124Z,7.22
2023-05-08T15:07:33.132Z,6.35
2023-05-08T15:12:35.014Z,8.63
2023-05-08T15:17:36.885Z,9.15
2023-05-08T15:22:38.733Z,7.70
2023-05-08T15:27:41.658Z,8.80
2023-05-08T15:32:43.467Z,5.50
2023-05-08T15:37:45.273Z,9.63
2023-05-08T15:42:47.075Z,7.88
2023-05-08T15:47:48.838Z,8.55
2023-05-08T15:52:50.703Z,9.57
2023-05-08T15:57:52.453Z,8.10
2023-05-08T16:02:54.275Z,6.00
2023-05-08T16:07:56.122Z,18.70
2023-05-08T16:12:57.868Z,13.48
2023-05-08T16:17:59.660Z,15.02
2023-05-08T16:23:01.410Z,10.43
2023-05-08T16:28:03.522Z,8.35
2023-05-08T16:33:05.564Z,9.95
2023-05-08T16:38:07.513Z,8.88
2023-05-08T16:43:09.449Z,6.93
2023-05-08T16:48:11.331Z,8.05
2023-05-08T16:53:13.244Z,12.07
2023-05-08T16:58:15.939Z,8.93
2023-05-08T17:03:17.764Z,8.98
2023-05-08T17:08:19.617Z,12.40
2023-05-08T17:13:21.460Z,17.30
2023-05-08T17:18:23.277Z,8.63
2023-05-08T17:23:24.983Z,8.90
2023-05-08T17:28:27.098Z,7.78
2023-05-08T17:33:28.862Z,13.10
2023-05-08T17:38:30.904Z,7.35
2023-05-08T17:43:32.639Z,9.77
2023-05-08T17:48:34.617Z,8.95
2023-05-08T17:53:36.325Z,8.63
2023-05-08T17:58:38.068Z,8.65
2023-05-08T18:03:39.841Z,9.63
2023-05-08T18:08:42.236Z,7.40
2023-05-08T18:13:44.048Z,7.65
2023-05-08T18:18:45.796Z,8.00
2023-05-08T18:23:47.582Z,8.43
2023-05-08T18:28:49.275Z,7.40
2023-05-08T18:33:50.991Z,11.50
2023-05-08T18:38:53.791Z,10.38
2023-05-08T18:43:56.319Z,10.43
2023-05-08T18:48:58.038Z,7.70
2023-05-08T18:54:00.355Z,11.85
2023-05-08T18:59:02.205Z,11.00
2023-05-08T19:04:04.374Z,10.25
2023-05-08T19:09:06.352Z,15.88
2023-05-08T19:14:08.259Z,10.93
2023-05-08T19:19:10.198Z,9.57
2023-05-08T19:24:12.043Z,12.57
2023-05-08T19:29:14.033Z,12.73
2023-05-08T19:34:16.021Z,15.70
2023-05-08T19:39:18.001Z,13.98
2023-05-08T19:44:19.815Z,17.55
2023-05-08T19:49:21.611Z,14.93
2023-05-08T19:54:23.478Z,18.02
2023-05-08T19:59:25.253Z,17.48
2023-05-08T20:04:27.012Z,9.57
2023-05-08T20:09:28.829Z,7.60
2023-05-08T20:14:30.544Z,5.68
2023-05-08T20:19:32.558Z,5.32
2023-05-08T20:24:34.362Z,5.80
2023-05-08T20:29:36.095Z,6.53
2023-05-08T20:34:37.813Z,7.05
2023-05-08T20:39:39.562Z,5.57
2023-05-08T20:44:41.294Z,5.43
2023-05-08T20:49:43.009Z,6.22
2023-05-08T20:54:45.767Z,6.57
2023-05-08T20:59:47.746Z,5.35
2023-05-08T21:04:49.469Z,7.20
2023-05-08T21:09:51.337Z,6.03
2023-05-08T21:14:53.060Z,4.57
2023-05-08T21:19:55.654Z,4.65
2023-05-08T21:24:57.371Z,5.40
2023-05-08T21:29:59.088Z,4.63
2023-05-08T21:35:00.781Z,5.43
2023-05-08T21:40:04.637Z,6.35
2023-05-08T21:45:07.192Z,4.80
2023-05-08T21:50:09.559Z,4.90
2023-05-08T21:55:11.608Z,6.22
2023-05-08T22:00:14.078Z,4.70
2023-05-08T22:05:23.376Z,6.05
2023-05-08T22:10:26.020Z,6.90
2023-05-08T22:15:30.675Z,3.92
2023-05-08T22:20:33.519Z,4.22
2023-05-08T22:25:35.337Z,4.25
2023-05-08T22:30:37.077Z,4.40
2023-05-08T22:35:38.778Z,5.03
2023-05-08T22:40:42.420Z,4.82
2023-05-08T22:45:44.419Z,5.20
2023-05-08T22:50:46.909Z,7.22
2023-05-08T22:55:48.627Z,4.00
2023-05-08T23:00:50.572Z,5.18
2023-05-08T23:05:52.398Z,5.05
2023-05-08T23:10:54.104Z,5.00
2023-05-08T23:15:55.816Z,4.97
2023-05-08T23:20:57.566Z,3.72
2023-05-08T23:26:04.856Z,6.22
2023-05-08T23:31:06.933Z,4.97
2023-05-08T23:36:09.318Z,5.90
2023-05-08T23:41:11.479Z,7.43
2023-05-08T23:46:13.851Z,4.00
2023-05-08T23:51:15.756Z,5.28
2023-05-08T23:56:17.626Z,6.15
